Adventure of The Seas — C6SA3 — position and weather

sailwx.info

Track history (hours):
 
Tides and Currents Weather Stations Pressure Air Temp Water Temp Dewpoint Dewpoint Depression Visibility Wind Speed Wind Dir Waves Ship Positions

Adventure of The Seas

Operator: Royal Caribbean Cruises Ltd

Last reported at 2017-Jan-16 07:31 UTC. Time now 2017-Jan-18 18:04 UTC.
Position N 17°42' W 063°09'.

Type: Passenger vessel. MMSI: 311263000.

Date/timePositionNaut miles runAvg speedWind from/ knotsBaromVisibWave heightAir tempDewpointWater temp
2017-Jan-16 07:31N 17°42' W 063°09'10 9.9
2017-Jan-16 06:33N 17°47' W 063°17'8811.0
2017-Jan-15 22:33N 18°11' W 064°46'73 3.6
2017-Jan-15 02:24N 18°37' W 065°59'7 8.2
2017-Jan-15 01:33N 18°33' W 066°05'5 4.9
2017-Jan-15 00:28N 18°28' W 066°06'0 0.0
2017-Jan-14 23:16N 18°28' W 066°06'0 0.0
2017-Jan-14 22:31N 18°28' W 066°06'0 0.0
2017-Jan-14 21:22N 18°28' W 066°06'0 0.0
2017-Jan-14 20:19N 18°28' W 066°06'0 0.0
2017-Jan-14 19:07N 18°28' W 066°06'0 0.0
2017-Jan-14 18:31N 18°28' W 066°06'0 0.0
2017-Jan-14 17:22N 18°28' W 066°06'0 0.0
2017-Jan-14 16:19N 18°28' W 066°06'0 0.0
2017-Jan-14 15:31N 18°28' W 066°06'0 0.0
2017-Jan-14 14:25N 18°28' W 066°06'0 0.0
2017-Jan-14 13:28N 18°28' W 066°06'0 0.0
2017-Jan-14 11:28N 18°28' W 066°06'0 0.0
2017-Jan-14 10:04N 18°28' W 066°06'0 0.3
2017-Jan-14 09:33N 18°28' W 066°06'8 5.5
2017-Jan-14 08:07N 18°35' W 066°03'3 5.5
2017-Jan-14 07:32N 18°34' W 065°59'6817.0
2017-Jan-14 03:33N 18°12' W 064°52'7117.2
2017-Jan-13 23:26N 18°04' W 063°38'1314.8
2017-Jan-13 22:32N 18°02' W 063°24'1915.9
2017-Jan-13 21:21N 18°00' W 063°04'1 0.1
2017-Jan-13 11:24N 18°00' W 063°03'6 6.2
2017-Jan-13 10:26N 17°55' W 063°06'7 7.6
2017-Jan-13 09:33N 17°49' W 063°07'8 7.4
2017-Jan-13 08:30N 17°41' W 063°07'31 1.2
2017-Jan-12 06:33N 17°32' W 062°36'8 7.6
2017-Jan-12 05:33N 17°34' W 062°29'8 8.1
2017-Jan-12 04:33N 17°36' W 062°20'8 7.9
2017-Jan-12 03:33N 17°32' W 062°13'7 7.0
2017-Jan-12 02:34N 17°26' W 062°11'7 7.1
2017-Jan-12 01:33N 17°19' W 062°10'5 4.6
2017-Jan-12 00:33N 17°15' W 062°08'5 4.8
2017-Jan-11 23:33N 17°12' W 062°03'5 4.8
2017-Jan-11 22:33N 17°10' W 061°59'6 5.5
2017-Jan-11 21:33N 17°08' W 061°53'3 2.4
2017-Jan-11 20:31N 17°07' W 061°51'0 0.0
2017-Jan-11 19:31N 17°07' W 061°51'0 0.0
2017-Jan-11 18:31N 17°07' W 061°51'0 0.0
2017-Jan-11 17:31N 17°07' W 061°51'0 0.0
2017-Jan-11 16:31N 17°07' W 061°51'0 0.0
2017-Jan-11 15:28N 17°07' W 061°51'0 0.0
2017-Jan-11 14:31N 17°07' W 061°51'0 0.0
2017-Jan-11 13:31N 17°07' W 061°51'0 0.0
2017-Jan-11 12:31N 17°07' W 061°51'1 1.0
2017-Jan-11 11:33N 17°08' W 061°52'7 7.1
2017-Jan-11 10:33N 17°04' W 061°58'1312.5
2017-Jan-11 09:34N 16°52' W 062°01'1515.3
2017-Jan-11 08:34N 16°37' W 062°04'1514.9
2017-Jan-11 07:33N 16°22' W 062°06'  
2017-Jan-08 06:28N 18°09' W 064°52'5 0.2
2017-Jan-07 04:05N 18°13' W 064°55'816.1
2017-Jan-07 03:33N 18°12' W 064°46'97 5.6
2017-Jan-06 10:24N 17°54' W 063°06'7 7.7
2017-Jan-06 09:30N 17°47' W 063°07'8 8.2
2017-Jan-06 08:31N 17°39' W 063°08'  
Track history (hours):
 
Tides and Currents Weather Stations Pressure Air Temp Water Temp Dewpoint Dewpoint Depression Visibility Wind Speed Wind Dir Waves Ship Positions

Adventure of The Seas

Operator: Royal Caribbean Cruises Ltd

Last reported at 2017-Jan-16 07:31 UTC. Time now 2017-Jan-18 18:04 UTC.
Position N 17°42' W 063°09'.

Type: Passenger vessel. MMSI: 311263000.

Date/timePositionNaut miles runAvg speedWind from/ knotsBaromVisibWave heightAir tempDewpointWater temp
2017-Jan-16 07:31N 17°42' W 063°09'10 9.9
2017-Jan-16 06:33N 17°47' W 063°17'8811.0
2017-Jan-15 22:33N 18°11' W 064°46'73 3.6
2017-Jan-15 02:24N 18°37' W 065°59'7 8.2
2017-Jan-15 01:33N 18°33' W 066°05'5 4.9
2017-Jan-15 00:28N 18°28' W 066°06'0 0.0
2017-Jan-14 23:16N 18°28' W 066°06'0 0.0
2017-Jan-14 22:31N 18°28' W 066°06'0 0.0
2017-Jan-14 21:22N 18°28' W 066°06'0 0.0
2017-Jan-14 20:19N 18°28' W 066°06'0 0.0
2017-Jan-14 19:07N 18°28' W 066°06'0 0.0
2017-Jan-14 18:31N 18°28' W 066°06'0 0.0
2017-Jan-14 17:22N 18°28' W 066°06'0 0.0
2017-Jan-14 16:19N 18°28' W 066°06'0 0.0
2017-Jan-14 15:31N 18°28' W 066°06'0 0.0
2017-Jan-14 14:25N 18°28' W 066°06'0 0.0
2017-Jan-14 13:28N 18°28' W 066°06'0 0.0
2017-Jan-14 11:28N 18°28' W 066°06'0 0.0
2017-Jan-14 10:04N 18°28' W 066°06'0 0.3
2017-Jan-14 09:33N 18°28' W 066°06'8 5.5
2017-Jan-14 08:07N 18°35' W 066°03'3 5.5
2017-Jan-14 07:32N 18°34' W 065°59'6817.0
2017-Jan-14 03:33N 18°12' W 064°52'7117.2
2017-Jan-13 23:26N 18°04' W 063°38'1314.8
2017-Jan-13 22:32N 18°02' W 063°24'1915.9
2017-Jan-13 21:21N 18°00' W 063°04'1 0.1
2017-Jan-13 11:24N 18°00' W 063°03'6 6.2
2017-Jan-13 10:26N 17°55' W 063°06'7 7.6
2017-Jan-13 09:33N 17°49' W 063°07'8 7.4
2017-Jan-13 08:30N 17°41' W 063°07'31 1.2
2017-Jan-12 06:33N 17°32' W 062°36'8 7.6
2017-Jan-12 05:33N 17°34' W 062°29'8 8.1
2017-Jan-12 04:33N 17°36' W 062°20'8 7.9
2017-Jan-12 03:33N 17°32' W 062°13'7 7.0
2017-Jan-12 02:34N 17°26' W 062°11'7 7.1
2017-Jan-12 01:33N 17°19' W 062°10'5 4.6
2017-Jan-12 00:33N 17°15' W 062°08'5 4.8
2017-Jan-11 23:33N 17°12' W 062°03'5 4.8
2017-Jan-11 22:33N 17°10' W 061°59'6 5.5
2017-Jan-11 21:33N 17°08' W 061°53'3 2.4
2017-Jan-11 20:31N 17°07' W 061°51'0 0.0
2017-Jan-11 19:31N 17°07' W 061°51'0 0.0
2017-Jan-11 18:31N 17°07' W 061°51'0 0.0
2017-Jan-11 17:31N 17°07' W 061°51'0 0.0
2017-Jan-11 16:31N 17°07' W 061°51'0 0.0
2017-Jan-11 15:28N 17°07' W 061°51'0 0.0
2017-Jan-11 14:31N 17°07' W 061°51'0 0.0
2017-Jan-11 13:31N 17°07' W 061°51'0 0.0
2017-Jan-11 12:31N 17°07' W 061°51'1 1.0
2017-Jan-11 11:33N 17°08' W 061°52'7 7.1
2017-Jan-11 10:33N 17°04' W 061°58'1312.5
2017-Jan-11 09:34N 16°52' W 062°01'1515.3
2017-Jan-11 08:34N 16°37' W 062°04'1514.9
2017-Jan-11 07:33N 16°22' W 062°06'  
2017-Jan-08 06:28N 18°09' W 064°52'5 0.2
2017-Jan-07 04:05N 18°13' W 064°55'816.1
2017-Jan-07 03:33N 18°12' W 064°46'97 5.6
2017-Jan-06 10:24N 17°54' W 063°06'7 7.7
2017-Jan-06 09:30N 17°47' W 063°07'8 8.2
2017-Jan-06 08:31N 17°39' W 063°08'  

Dump ship's entire track history